Terminal Aerodrome Forecast
Issued by NWS

Home | Current Version | Previous Version | Text Only | Print | Product List | Glossary On
Versions: 1 2 3 4 5 6 7 8 9 10 11 12 13 14 15 16 17 18 19 20 21 22 23 24 25 26 27
713
FTUS45 KGJT 010532
TAFCNY
TAF
KCNY 010532Z 0106/0206 00000KT P6SM SCT150
     FM011500 14004KT P6SM BKN150
     FM011900 17006KT P6SM SCT110 BKN150
     FM012200 22009KT P6SM SCT080 OVC150
     FM020200 22012KT P6SM VCSH BKN070 OVC120=

USA.gov is the U.S. government's official web portal to all federal, state and local government web resources and services.